Time;durP1;ratioP1;P1;durP2;ratioP2;P2;SDS_P1;SDS_P2;PMS_P1;PMS_P2;Temp;Humidity;BMP_temperature;BMP_pressure;BME280_temperature;BME280_humidity;BME280_pressure;Samples;Min_cycle;Max_cycle;Signal;HPM_P1;HPM_P2
2021/10/11 00:01:30;;;;;;;66.53;38.77;;;;;;;6.09;61.56;101109.84;4917551;28;96949;-80
2021/10/11 00:04:12;;;;;;;64.73;38.60;;;;;;;6.04;61.86;101112.47;4908327;28;100662;-80
2021/10/11 00:06:38;;;;;;;74.53;40.38;;;;;;;5.86;62.67;101113.34;4908548;28;100645;-81
2021/10/11 00:09:11;;;;;;;64.87;38.43;;;;;;;5.82;62.65;101106.41;4925732;28;96677;-80
2021/10/11 00:11:36;;;;;;;74.10;41.27;;;;;;;5.95;62.22;101115.09;4892182;28;96613;-81
2021/10/11 00:14:02;;;;;;;66.93;41.73;;;;;;;5.93;62.31;101121.16;4903588;28;101707;-80
2021/10/11 00:16:28;;;;;;;65.80;39.33;;;;;;;5.87;62.45;101117.69;4894799;28;100219;-80
2021/10/11 00:18:59;;;;;;;66.73;38.50;;;;;;;5.75;62.61;101107.28;4885651;28;96669;-80
2021/10/11 00:21:24;;;;;;;72.87;41.73;;;;;;;5.70;62.48;101098.59;4856834;28;96845;-81
2021/10/11 00:23:56;;;;;;;74.33;41.57;;;;;;;5.73;62.59;101110.75;4881587;28;96754;-80
2021/10/11 00:26:22;;;;;;;66.57;40.10;;;;;;;5.84;62.25;101111.59;4906011;28;99930;-80
2021/10/11 00:28:47;;;;;;;73.47;40.27;;;;;;;5.81;62.06;101116.81;4907871;28;96640;-80
2021/10/11 00:31:13;;;;;;;68.97;39.20;;;;;;;5.73;62.49;101113.34;4891406;28;96637;-80
2021/10/11 00:33:39;;;;;;;68.13;40.20;;;;;;;5.57;62.94;101100.38;4891069;28;101155;-80
2021/10/11 00:36:05;;;;;;;64.97;37.43;;;;;;;5.68;62.37;101092.53;4890735;28;100532;-80
2021/10/11 00:38:39;;;;;;;73.67;40.63;;;;;;;5.71;62.59;101100.34;4922004;28;96725;-80
2021/10/11 00:41:05;;;;;;;69.37;39.17;;;;;;;5.66;62.68;101096.88;4883722;28;96875;-80
2021/10/11 00:43:37;;;;;;;66.77;38.47;;;;;;;5.52;63.10;101093.44;4906628;28;101715;-80
2021/10/11 00:46:02;;;;;;;72.37;39.40;;;;;;;5.35;63.31;101075.19;4907121;28;102032;-80
2021/10/11 00:48:29;;;;;;;69.37;40.53;;;;;;;5.55;62.87;101078.66;4890126;28;96758;-80
2021/10/11 00:50:55;;;;;;;67.57;39.53;;;;;;;5.51;62.84;101082.16;4861745;28;96886;-80
2021/10/11 00:53:20;;;;;;;70.30;40.80;;;;;;;5.56;62.87;101075.19;4890703;28;97702;-80
2021/10/11 00:55:46;;;;;;;72.27;41.80;;;;;;;5.42;62.95;101071.75;4888717;28;100978;-80
2021/10/11 00:58:12;;;;;;;70.30;41.27;;;;;;;5.36;63.00;101064.81;4878507;28;96796;-80
2021/10/11 01:00:37;;;;;;;72.73;40.20;;;;;;;5.51;62.89;101071.72;4872341;28;96815;-80
2021/10/11 01:03:03;;;;;;;69.90;39.17;;;;;;;5.58;62.35;101075.19;4872548;28;101341;-79
2021/10/11 01:05:28;;;;;;;72.10;41.67;;;;;;;5.38;63.13;101062.19;4887694;28;100748;-80
2021/10/11 01:08:13;;;;;;;72.33;38.33;;;;;;;5.19;63.50;101054.38;4888547;28;96811;-80
2021/10/11 01:16:09;;;;;;;70.45;40.13;;;;;;;5.36;62.86;101056.13;5179076;23;105856;-85
2021/10/11 01:18:35;;;;;;;73.03;40.67;;;;;;;5.36;62.76;101057.00;4919628;28;97795;-81
2021/10/11 01:21:00;;;;;;;66.83;39.50;;;;;;;5.36;62.80;101053.53;4888428;28;96894;-79
2021/10/11 01:23:26;;;;;;;69.17;41.27;;;;;;;5.40;62.68;101060.44;4906728;28;101686;-79
2021/10/11 01:25:52;;;;;;;71.17;39.07;;;;;;;5.28;62.66;101047.44;4899829;28;97555;-79
2021/10/11 01:28:19;;;;;;;73.53;41.57;;;;;;;5.30;62.98;101050.94;4915659;28;97129;-79
2021/10/11 01:30:44;;;;;;;67.43;39.00;;;;;;;5.12;63.04;101036.16;4915606;28;96901;-80
2021/10/11 01:33:10;;;;;;;74.00;39.87;;;;;;;5.09;63.52;101055.28;4917797;28;101523;-82
2021/10/11 01:35:36;;;;;;;68.83;39.13;;;;;;;5.08;63.08;101037.03;4889093;28;101321;-79
2021/10/11 01:38:02;;;;;;;71.33;39.33;;;;;;;5.11;63.14;101026.63;4915535;28;97694;-79
2021/10/11 01:40:28;;;;;;;69.03;40.87;;;;;;;5.22;62.90;101028.34;4912222;28;96897;-80
2021/10/11 01:42:53;;;;;;;68.87;38.80;;;;;;;5.13;62.78;101028.38;4899624;28;101512;-79
2021/10/11 01:45:19;;;;;;;64.97;37.83;;;;;;;5.15;63.48;101033.59;4915322;28;101536;-79
2021/10/11 01:47:44;;;;;;;68.97;40.53;;;;;;;5.16;62.72;101023.16;4910321;28;96808;-79
2021/10/11 01:50:10;;;;;;;70.20;39.80;;;;;;;5.14;62.69;101037.03;4915493;28;96978;-82
2021/10/11 01:52:36;;;;;;;73.97;41.10;;;;;;;4.95;62.91;101010.16;4898140;28;101189;-79
2021/10/11 01:55:04;;;;;;;69.80;40.20;;;;;;;4.96;62.94;101022.31;4915270;28;101522;-79
2021/10/11 01:57:30;;;;;;;68.53;42.23;;;;;;;4.90;63.43;101020.56;4883227;28;96859;-79
2021/10/11 01:59:55;;;;;;;72.93;41.50;;;;;;;4.79;63.91;101006.69;4883298;28;97042;-80
2021/10/11 02:02:21;;;;;;;69.97;40.03;;;;;;;4.82;64.32;101004.06;4899659;28;101503;-79
2021/10/11 02:04:47;;;;;;;70.47;39.97;;;;;;;4.80;63.99;101004.94;4900697;28;101355;-78
2021/10/11 02:07:12;;;;;;;66.13;38.63;;;;;;;4.71;64.15;101001.50;4906971;28;96895;-80
2021/10/11 02:09:38;;;;;;;68.23;39.30;;;;;;;4.80;64.08;101003.22;4902047;28;97928;-79
2021/10/11 02:12:03;;;;;;;71.83;40.50;;;;;;;4.84;63.80;101002.34;4915101;28;97723;-81
2021/10/11 02:14:29;;;;;;;69.10;40.27;;;;;;;4.67;63.91;100991.06;4882515;28;101453;-79
2021/10/11 02:16:56;;;;;;;70.10;39.80;;;;;;;4.72;64.00;100998.00;4884689;28;97417;-79
2021/10/11 02:19:22;;;;;;;72.80;42.57;;;;;;;4.54;64.38;100991.06;4898223;28;97018;-82
2021/10/11 02:21:47;;;;;;;75.43;42.63;;;;;;;4.48;64.36;100993.66;4898349;28;100948;-79
2021/10/11 02:24:13;;;;;;;72.20;40.67;;;;;;;4.62;64.26;100980.66;4914024;28;101709;-84
2021/10/11 02:26:39;;;;;;;77.17;42.10;;;;;;;4.53;64.35;100984.09;4884978;28;97020;-80
2021/10/11 02:29:06;;;;;;;82.23;43.20;;;;;;;4.30;65.07;100988.41;4893593;28;96898;-79
2021/10/11 02:31:31;;;;;;;77.30;43.17;;;;;;;4.47;64.63;100983.25;4900426;28;101098;-79
2021/10/11 02:33:57;;;;;;;77.77;42.27;;;;;;;4.48;64.38;100972.84;4900093;28;97967;-79
2021/10/11 02:36:22;;;;;;;78.27;42.90;;;;;;;4.50;64.24;100985.84;4922245;28;97145;-79
2021/10/11 02:38:48;;;;;;;83.33;43.93;;;;;;;4.45;64.42;100975.47;4926010;28;97291;-80
2021/10/11 02:41:13;;;;;;;82.87;43.73;;;;;;;4.39;64.27;100975.41;4897770;28;101052;-81
2021/10/11 02:43:39;;;;;;;79.87;41.30;;;;;;;4.36;64.23;100977.16;4914698;28;101162;-79
2021/10/11 02:46:04;;;;;;;82.07;42.07;;;;;;;4.27;64.86;100971.06;4914911;28;97115;-80
2021/10/11 02:48:30;;;;;;;85.77;41.07;;;;;;;4.30;65.05;100968.50;4887903;28;97340;-79
2021/10/11 02:50:56;;;;;;;84.33;40.83;;;;;;;4.32;64.88;100956.34;4882517;28;101287;-79
2021/10/11 02:53:21;;;;;;;86.90;40.37;;;;;;;4.31;64.70;100970.22;4910372;28;101296;-79
2021/10/11 02:55:47;;;;;;;89.83;43.67;;;;;;;4.48;64.20;100972.84;4910409;28;97087;-80
2021/10/11 02:58:12;;;;;;;82.07;42.00;;;;;;;4.46;64.06;100977.19;4898218;28;97223;-81
2021/10/11 03:00:38;;;;;;;80.13;43.30;;;;;;;4.49;63.91;100963.31;4897812;28;101670;-79
2021/10/11 03:03:03;;;;;;;79.90;41.87;;;;;;;4.40;64.00;100968.50;4920138;28;101231;-81
2021/10/11 03:05:29;;;;;;;79.73;42.43;;;;;;;4.23;64.60;100956.34;4881440;28;97294;-80
2021/10/11 03:07:54;;;;;;;80.73;42.60;;;;;;;4.27;64.72;100952.88;4915576;28;98041;-79
2021/10/11 03:10:20;;;;;;;78.00;40.27;;;;;;;4.19;64.83;100948.53;4913880;28;101904;-79
2021/10/11 03:12:45;;;;;;;80.60;41.87;;;;;;;4.19;65.01;100939.03;4914084;28;101441;-79
2021/10/11 03:15:11;;;;;;;77.27;39.80;;;;;;;4.26;64.62;100951.16;4898665;28;96783;-83
2021/10/11 03:17:36;;;;;;;81.83;39.97;;;;;;;4.18;64.45;100941.59;4901641;28;96840;-79
2021/10/11 03:20:04;;;;;;;76.47;39.60;;;;;;;4.23;64.49;100940.75;4879129;28;101441;-79
2021/10/11 03:22:29;;;;;;;81.80;39.07;;;;;;;4.25;64.47;100943.38;4864076;28;101621;-79
2021/10/11 03:24:55;;;;;;;75.30;40.70;;;;;;;4.30;64.19;100952.91;4895890;28;96885;-80
2021/10/11 03:27:20;;;;;;;82.53;42.03;;;;;;;4.27;64.18;100952.00;4894558;28;97008;-79
2021/10/11 03:29:46;;;;;;;76.10;39.90;;;;;;;4.22;64.71;100964.16;4910638;28;97747;-79
2021/10/11 03:32:11;;;;;;;75.63;39.77;;;;;;;4.25;64.08;100965.03;4878473;28;101394;-81
2021/10/11 03:34:37;;;;;;;82.87;41.87;;;;;;;4.08;64.71;100958.91;4879298;28;96776;-80
2021/10/11 03:37:03;;;;;;;76.37;39.10;;;;;;;4.12;64.69;100959.78;4864955;28;97008;-80
2021/10/11 03:39:28;;;;;;;76.07;39.70;;;;;;;4.21;63.94;100965.00;4885885;28;101365;-80
2021/10/11 03:41:54;;;;;;;77.23;38.77;;;;;;;3.98;64.92;100959.72;4881665;28;100963;-79
2021/10/11 03:44:20;;;;;;;75.57;40.30;;;;;;;3.93;64.93;100953.69;4877263;28;96888;-80
2021/10/11 03:46:45;;;;;;;71.90;40.23;;;;;;;3.96;65.41;100961.47;4884276;28;96995;-81
2021/10/11 03:49:11;;;;;;;79.83;40.70;;;;;;;4.01;64.55;100952.81;4878723;28;101280;-79
2021/10/11 03:51:37;;;;;;;78.73;41.67;;;;;;;4.04;64.82;100955.44;4877459;28;101578;-79
2021/10/11 03:54:02;;;;;;;79.17;39.80;;;;;;;4.08;64.37;100957.19;4883415;28;98057;-78
2021/10/11 03:56:28;;;;;;;80.43;39.60;;;;;;;4.07;64.25;100959.75;4883432;28;97287;-78
2021/10/11 03:58:53;;;;;;;72.23;38.40;;;;;;;3.99;64.58;100951.97;4880783;28;101711;-78
2021/10/11 04:01:19;;;;;;;70.90;38.70;;;;;;;4.03;64.51;100964.09;4877565;28;100242;-79
2021/10/11 04:03:44;;;;;;;78.90;38.53;;;;;;;4.05;64.53;100964.09;4881471;28;97241;-78
2021/10/11 04:06:11;;;;;;;71.87;38.50;;;;;;;3.99;64.49;100951.09;4911813;28;97215;-79
2021/10/11 04:08:39;;;;;;;87.43;41.07;;;;;;;4.04;65.05;100959.75;4876768;28;101109;-79
2021/10/11 04:11:10;;;;;;;73.47;40.13;;;;;;;4.11;64.64;100951.13;4894992;28;101022;-80
2021/10/11 04:13:36;;;;;;;74.40;38.72;;;;;;;3.98;64.55;100939.81;4881774;28;97283;-78
2021/10/11 04:16:02;;;;;;;71.17;37.33;;;;;;;4.05;64.56;100941.59;4898984;28;97200;-81
2021/10/11 04:18:27;;;;;;;85.50;40.13;;;;;;;4.04;64.43;100936.38;4918389;28;98017;-77
2021/10/11 04:20:53;;;;;;;80.47;40.33;;;;;;;3.99;64.29;100928.56;4898859;28;100960;-76
2021/10/11 04:23:18;;;;;;;76.90;36.70;;;;;;;3.97;64.74;100935.50;4883072;28;96681;-77
2021/10/11 04:25:44;;;;;;;71.83;37.63;;;;;;;3.91;64.86;100932.88;4899641;28;97780;-76
2021/10/11 04:28:12;;;;;;;72.47;36.37;;;;;;;3.84;64.96;100932.00;4915203;28;101763;-77
2021/10/11 04:30:38;;;;;;;75.50;37.83;;;;;;;3.98;64.72;100944.16;4899537;28;101299;-77
2021/10/11 04:33:04;;;;;;;67.43;36.33;;;;;;;3.95;64.57;100939.81;4897814;28;97774;-80
2021/10/11 04:35:29;;;;;;;72.30;37.30;;;;;;;3.85;64.62;100925.94;4912611;28;98173;-78
2021/10/11 04:37:55;;;;;;;68.67;36.47;;;;;;;3.92;65.12;100929.41;4878781;28;102058;-78
2021/10/11 04:40:20;;;;;;;72.83;37.80;;;;;;;3.88;64.86;100927.69;4909650;28;101601;-78
2021/10/11 04:42:46;;;;;;;70.30;35.10;;;;;;;3.72;65.60;100916.34;4887720;28;99622;-77
2021/10/11 04:45:12;;;;;;;67.43;36.20;;;;;;;3.84;65.65;100920.75;4896087;28;97665;-76
2021/10/11 04:47:38;;;;;;;61.30;33.40;;;;;;;3.72;65.52;100918.94;4889672;28;102071;-77
2021/10/11 04:50:04;;;;;;;76.60;35.50;;;;;;;3.77;65.46;100909.44;4898281;28;103158;-79
2021/10/11 04:52:30;;;;;;;72.80;35.63;;;;;;;3.80;65.64;100909.47;4898994;28;96835;-85
2021/10/11 04:54:55;;;;;;;61.13;34.90;;;;;;;3.75;65.68;100908.59;4895124;28;97097;-85
2021/10/11 04:57:21;;;;;;;71.57;37.67;;;;;;;3.69;66.11;100905.97;4889190;28;101214;-84
2021/10/11 04:59:47;;;;;;;65.97;35.73;;;;;;;3.65;65.62;100896.44;4911702;28;100984;-86
2021/10/11 05:02:12;;;;;;;80.30;36.83;;;;;;;3.72;65.81;100911.16;4904101;28;96989;-86
2021/10/11 05:04:38;;;;;;;67.77;35.63;;;;;;;3.76;65.72;100912.06;4900460;28;97033;-86
2021/10/11 05:07:03;;;;;;;67.93;35.50;;;;;;;3.71;65.47;100906.84;4899989;28;100654;-90
2021/10/11 05:09:29;;;;;;;72.93;37.70;;;;;;;3.79;65.10;100906.88;4916664;28;98287;-85
2021/10/11 05:11:55;;;;;;;75.70;37.30;;;;;;;3.75;65.26;100897.31;4900350;28;96659;-84
2021/10/11 05:14:20;;;;;;;72.47;36.07;;;;;;;3.80;65.64;100908.59;4922500;28;96756;-87
2021/10/11 05:16:47;;;;;;;66.30;36.00;;;;;;;3.88;64.82;100912.09;4896743;28;97604;-88
2021/10/11 05:19:12;;;;;;;70.57;36.63;;;;;;;3.82;64.88;100905.16;4863611;28;101293;-92
2021/10/11 05:21:38;;;;;;;63.20;35.00;;;;;;;3.77;65.46;100904.25;4866456;28;97434;-84
2021/10/11 05:24:04;;;;;;;66.30;33.83;;;;;;;3.78;65.71;100902.53;4881520;28;96871;-85
2021/10/11 05:26:31;;;;;;;68.83;35.53;;;;;;;3.93;64.94;100891.34;4883787;28;101291;-83
2021/10/11 05:28:58;;;;;;;68.17;35.03;;;;;;;3.63;65.63;100874.78;4864786;28;101345;-83
2021/10/11 05:31:24;;;;;;;66.80;33.57;;;;;;;3.72;66.12;100892.13;4879282;28;97144;-89
2021/10/11 05:33:49;;;;;;;67.70;33.73;;;;;;;3.77;65.92;100890.41;4892162;28;97883;-88
2021/10/11 05:36:15;;;;;;;65.23;34.90;;;;;;;3.83;65.89;100890.44;4881662;28;101486;-86
2021/10/11 05:38:41;;;;;;;70.70;34.90;;;;;;;3.89;66.36;100890.44;4865338;28;101197;-85
2021/10/11 05:41:06;;;;;;;66.47;35.97;;;;;;;3.87;65.50;100879.19;4884593;28;97417;-77
2021/10/11 05:43:32;;;;;;;63.50;34.50;;;;;;;3.94;65.59;100872.28;4879628;28;97682;-77
2021/10/11 05:45:57;;;;;;;69.03;40.00;;;;;;;4.05;65.21;100886.16;4879908;28;101617;-82
2021/10/11 05:48:23;;;;;;;78.93;38.57;;;;;;;4.12;64.95;100880.09;4900333;28;98466;-82
2021/10/11 05:50:48;;;;;;;72.87;37.97;;;;;;;4.25;64.73;100878.38;4880589;28;97423;-81
2021/10/11 05:53:14;;;;;;;72.40;37.70;;;;;;;4.52;63.76;100874.91;4895113;28;96890;-78
2021/10/11 05:55:39;;;;;;;67.20;38.20;;;;;;;4.58;63.76;100874.91;4874167;28;101362;-77
2021/10/11 05:58:05;;;;;;;70.80;39.50;;;;;;;4.93;62.91;100881.81;4885531;28;98078;-77
2021/10/11 06:00:30;;;;;;;67.47;36.00;;;;;;;5.47;61.34;100876.41;4857143;28;96789;-77
2021/10/11 06:02:56;;;;;;;68.77;37.13;;;;;;;5.40;61.42;100870.38;4886408;28;97232;-78
2021/10/11 06:05:22;;;;;;;61.23;34.37;;;;;;;5.43;61.86;100875.56;4879426;28;101536;-80
2021/10/11 06:07:47;;;;;;;65.40;35.40;;;;;;;5.35;62.37;100880.81;4879831;28;101863;-78
2021/10/11 06:10:13;;;;;;;62.13;35.67;;;;;;;5.55;61.53;100878.13;4872167;28;97266;-77
2021/10/11 06:12:39;;;;;;;69.93;33.70;;;;;;;5.64;61.79;100872.88;4874315;28;97296;-77
2021/10/11 06:15:05;;;;;;;64.03;35.57;;;;;;;7.25;57.34;100876.78;4901757;28;101472;-77
2021/10/11 06:17:30;;;;;;;62.40;32.53;;;;;;;8.68;53.59;100861.69;4871998;28;101469;-77
2021/10/11 06:19:56;;;;;;;59.83;33.73;;;;;;;7.97;55.12;100871.50;4885494;28;98005;-77
2021/10/11 06:22:21;;;;;;;60.57;34.27;;;;;;;7.30;57.18;100876.75;4897802;28;96799;-78
2021/10/11 06:24:47;;;;;;;61.80;33.60;;;;;;;7.55;56.45;100876.44;4897435;28;97545;-77
2021/10/11 06:27:13;;;;;;;67.50;37.10;;;;;;;7.60;56.94;100875.50;4931963;28;97838;-77
2021/10/11 06:29:38;;;;;;;71.13;36.43;;;;;;;7.90;55.89;100878.56;4891259;28;96678;-77
2021/10/11 06:32:04;;;;;;;76.35;40.08;;;;;;;7.99;55.92;100880.19;4898330;28;96877;-78
2021/10/11 06:34:30;;;;;;;61.70;34.40;;;;;;;7.91;56.07;100867.22;4897449;28;101559;-79
2021/10/11 06:36:55;;;;;;;44.47;29.33;;;;;;;7.92;56.12;100867.22;4884215;28;101066;-77
2021/10/11 06:39:21;;;;;;;50.10;28.87;;;;;;;7.98;55.88;100865.41;4897105;28;96908;-82
2021/10/11 06:41:47;;;;;;;49.45;28.67;;;;;;;8.26;55.56;100871.94;4895377;28;97237;-77
2021/10/11 06:44:12;;;;;;;44.65;27.42;;;;;;;8.59;54.24;100865.31;4901157;28;98038;-79
2021/10/11 06:46:38;;;;;;;46.23;28.03;;;;;;;8.71;53.64;100873.84;4897131;28;101410;-77
2021/10/11 06:49:03;;;;;;;46.42;28.52;;;;;;;8.72;53.65;100857.25;4913377;28;97294;-81
2021/10/11 06:51:29;;;;;;;50.80;26.15;;;;;;;8.93;53.04;100879.53;4898171;28;96807;-82
2021/10/11 06:53:54;;;;;;;50.93;26.53;;;;;;;9.07;52.80;100875.81;4889852;28;101192;-84
2021/10/11 06:56:20;;;;;;;42.50;26.95;;;;;;;9.38;52.68;100875.19;4892584;28;101787;-83
2021/10/11 06:58:45;;;;;;;52.08;26.50;;;;;;;9.39;52.45;100876.03;4895303;28;96857;-84
2021/10/11 07:01:12;;;;;;;48.28;26.42;;;;;;;9.77;51.60;100866.50;4906602;28;98226;-83
2021/10/11 07:03:38;;;;;;;47.30;26.63;;;;;;;9.87;51.68;100868.91;4891453;28;98527;-84
2021/10/11 07:06:15;;;;;;;41.78;26.25;;;;;;;10.33;51.29;100867.88;4893541;28;101533;-80
2021/10/11 07:08:40;;;;;;;45.42;26.95;;;;;;;10.70;50.57;100866.06;4886685;28;97451;-79
2021/10/11 07:11:08;;;;;;;47.25;27.70;;;;;;;11.08;48.97;100868.56;4898532;28;97309;-79
2021/10/11 07:13:34;;;;;;;42.20;25.92;;;;;;;10.92;48.89;100874.25;4912756;28;101959;-86
2021/10/11 07:16:03;;;;;;;47.75;26.30;;;;;;;11.70;47.89;100866.78;4896667;28;100977;-81
2021/10/11 07:18:33;;;;;;;52.88;27.30;;;;;;;12.46;47.18;100861.75;4881468;28;96789;-83
2021/10/11 07:21:03;;;;;;;49.35;26.85;;;;;;;12.86;45.53;100855.13;4895891;28;97293;-83
2021/10/11 07:23:29;;;;;;;37.13;24.55;;;;;;;13.48;43.99;100858.22;4882012;28;101414;-81
2021/10/11 07:25:56;;;;;;;37.15;25.20;;;;;;;13.55;43.83;100868.47;4883696;28;101853;-84
2021/10/11 07:28:22;;;;;;;42.38;24.08;;;;;;;14.71;42.76;100862.13;4894015;28;97555;-84
2021/10/11 07:30:48;;;;;;;40.20;22.80;;;;;;;15.84;39.38;100859.69;4878822;28;97925;-87
2021/10/11 07:33:13;;;;;;;40.83;24.45;;;;;;;16.87;39.20;100851.13;4895278;28;98674;-85
2021/10/11 07:35:41;;;;;;;42.15;23.88;;;;;;;17.76;37.85;100849.84;4893843;28;101506;-85
2021/10/11 07:38:08;;;;;;;43.05;22.83;;;;;;;18.40;36.54;100848.03;4899492;28;97089;-83
2021/10/11 07:40:34;;;;;;;40.42;23.33;;;;;;;18.47;35.37;100848.50;4900888;28;97437;-85
2021/10/11 07:42:59;;;;;;;39.05;23.52;;;;;;;18.00;35.89;100833.50;4880798;28;101843;-85
2021/10/11 07:45:25;;;;;;;43.05;22.05;;;;;;;18.14;35.40;100836.25;4918772;28;98030;-85
2021/10/11 07:47:50;;;;;;;35.40;22.17;;;;;;;19.16;34.95;100837.28;4884471;28;98228;-80
2021/10/11 07:50:16;;;;;;;31.65;21.55;;;;;;;19.97;33.08;100833.97;4905878;28;97877;-80
2021/10/11 07:52:42;;;;;;;30.73;20.60;;;;;;;20.95;31.50;100832.72;4908579;28;101453;-83
2021/10/11 07:55:08;;;;;;;33.25;22.08;;;;;;;21.96;30.61;100821.97;4898219;28;101584;-84
2021/10/11 07:57:33;;;;;;;31.35;19.33;;;;;;;21.91;30.19;100824.16;4887531;28;97240;-84
2021/10/11 08:00:03;;;;;;;27.08;19.73;;;;;;;23.20;28.85;100831.28;4890751;28;100637;-83
2021/10/11 08:02:30;;;;;;;30.15;20.33;;;;;;;23.06;28.49;100820.81;4908361;28;98233;-84
2021/10/11 08:04:56;;;;;;;31.40;20.17;;;;;;;24.22;27.04;100813.22;4906059;28;100298;-83
2021/10/11 08:07:21;;;;;;;35.15;20.08;;;;;;;24.39;27.07;100811.78;4879032;28;96853;-87
2021/10/11 08:09:47;;;;;;;29.75;20.90;;;;;;;24.86;27.15;100817.66;4889692;28;97607;-84
2021/10/11 08:12:13;;;;;;;28.33;21.23;;;;;;;24.89;26.85;100816.53;4909690;28;101224;-81
2021/10/11 08:14:38;;;;;;;26.85;19.92;;;;;;;24.90;27.60;100815.53;4908437;28;101122;-82
2021/10/11 08:17:04;;;;;;;31.33;19.98;;;;;;;25.49;26.32;100806.81;4892302;28;97129;-83
2021/10/11 08:19:29;;;;;;;29.98;20.88;;;;;;;26.15;25.97;100809.78;4899623;28;96930;-82
2021/10/11 08:21:55;;;;;;;29.75;20.52;;;;;;;26.75;24.67;100809.59;4886001;28;97707;-83
2021/10/11 08:24:20;;;;;;;27.45;19.70;;;;;;;25.99;25.93;100805.94;4895077;28;101701;-83
2021/10/11 08:26:46;;;;;;;25.30;20.27;;;;;;;25.26;26.84;100809.69;4899558;28;96981;-83
2021/10/11 08:29:12;;;;;;;27.27;18.50;;;;;;;25.61;26.15;100807.53;4888848;28;97067;-84
2021/10/11 08:31:38;;;;;;;26.75;18.42;;;;;;;24.06;27.70;100802.06;4896238;28;97913;-88
2021/10/11 08:34:04;;;;;;;25.42;17.98;;;;;;;21.60;30.89;100807.69;4911728;28;98895;-86
2021/10/11 08:36:29;;;;;;;22.60;17.10;;;;;;;22.00;31.57;100806.59;4894295;28;97179;-86
2021/10/11 08:38:55;;;;;;;24.77;18.40;;;;;;;23.95;28.84;100805.63;4917247;28;97291;-86
2021/10/11 08:41:21;;;;;;;29.58;17.88;;;;;;;24.45;28.85;100797.88;4906581;28;97949;-87
2021/10/11 08:43:47;;;;;;;22.27;16.65;;;;;;;24.93;28.30;100800.03;4878097;28;100917;-85
2021/10/11 08:46:13;;;;;;;26.10;17.40;;;;;;;22.23;30.67;100803.06;4893430;28;97746;-86
2021/10/11 08:48:39;;;;;;;29.77;17.85;;;;;;;21.56;31.49;100814.22;4905084;28;98846;-85
2021/10/11 08:51:05;;;;;;;23.80;16.77;;;;;;;21.43;31.82;100806.22;4899942;28;101362;-86
2021/10/11 08:53:32;;;;;;;20.88;16.10;;;;;;;21.01;32.58;100802.94;4898060;28;101142;-86
2021/10/11 08:56:01;;;;;;;26.25;17.00;;;;;;;21.60;31.84;100807.69;4884597;28;96812;-86
2021/10/11 08:58:27;;;;;;;28.80;17.67;;;;;;;23.69;29.56;100799.69;4897464;28;97063;-84
2021/10/11 09:01:04;;;;;;;24.58;17.20;;;;;;;25.10;28.08;100789.63;4896506;28;98209;-85
2021/10/11 09:03:30;;;;;;;29.00;16.52;;;;;;;26.34;26.81;100787.38;4896981;28;102348;-86
2021/10/11 09:06:11;;;;;;;20.45;16.67;;;;;;;27.30;25.53;100780.06;4886647;28;97443;-86
2021/10/11 09:08:39;;;;;;;19.13;14.27;;;;;;;25.33;27.47;100780.44;4871536;28;96880;-85
2021/10/11 09:11:06;;;;;;;21.17;12.45;;;;;;;23.87;27.75;100775.94;4882776;28;101851;-86
2021/10/11 09:13:53;;;;;;;14.90;12.65;;;;;;;23.88;27.57;100783.84;4885486;28;101557;-87
2021/10/11 09:16:40;;;;;;;14.52;13.02;;;;;;;23.91;27.68;100783.59;4918462;28;96664;-87
2021/10/11 09:19:23;;;;;;;17.15;13.02;;;;;;;24.54;27.52;100774.78;4912647;28;96569;-87
2021/10/11 09:21:49;;;;;;;14.65;12.05;;;;;;;25.58;26.93;100779.09;4883538;28;101918;-87
2021/10/11 09:24:19;;;;;;;16.75;14.00;;;;;;;25.39;26.74;100776.34;4898421;28;98522;-87
2021/10/11 09:26:44;;;;;;;23.10;14.43;;;;;;;25.51;26.79;100770.75;4882510;28;96641;-87
2021/10/11 09:29:10;;;;;;;19.48;12.35;;;;;;;25.16;28.12;100764.97;4898535;28;96886;-87
2021/10/11 09:31:41;;;;;;;15.57;12.98;;;;;;;25.22;26.95;100767.09;4882219;28;101065;-87
2021/10/11 09:34:13;;;;;;;15.88;12.80;;;;;;;24.21;28.17;100749.00;4882389;28;101550;-87
2021/10/11 09:36:40;;;;;;;17.75;13.05;;;;;;;24.18;28.00;100745.56;4881835;28;97289;-87
2021/10/11 09:39:06;;;;;;;13.70;11.82;;;;;;;24.03;27.93;100752.25;4898607;28;96596;-87
2021/10/11 09:41:31;;;;;;;16.50;13.32;;;;;;;22.92;29.96;100751.41;4881949;28;100277;-87
2021/10/11 09:43:57;;;;;;;18.33;13.95;;;;;;;22.29;30.93;100748.28;4883082;28;101674;-93
2021/10/11 09:46:24;;;;;;;20.52;13.65;;;;;;;21.53;32.29;100749.50;4883134;28;96663;-92
2021/10/11 09:48:55;;;;;;;14.38;12.68;;;;;;;20.56;33.25;100742.97;4883208;28;96808;-84
2021/10/11 09:51:21;;;;;;;;;;;;;;;20.23;34.07;100741.63;4898695;28;98096;-83
2021/10/11 09:53:49;;;;;;;20.58;13.90;;;;;;;20.35;34.81;100746.13;4898501;28;101103;-83
2021/10/11 09:56:15;;;;;;;19.63;13.75;;;;;;;19.80;35.48;100741.81;4881793;28;96579;-83
2021/10/11 09:58:40;;;;;;;15.98;12.40;;;;;;;19.74;35.45;100741.38;4881796;28;96819;-83
2021/10/11 10:01:06;;;;;;;15.43;11.65;;;;;;;19.60;35.27;100729.78;4881289;28;97950;-84
2021/10/11 10:03:34;;;;;;;20.50;12.77;;;;;;;19.42;36.38;100731.81;4881534;28;101236;-81
2021/10/11 10:06:00;;;;;;;16.17;12.75;;;;;;;19.45;36.00;100728.97;4881915;28;96637;-82
2021/10/11 10:08:25;;;;;;;16.08;12.52;;;;;;;19.29;36.21;100730.94;4881626;28;96867;-82
2021/10/11 10:10:53;;;;;;;15.48;11.15;;;;;;;19.27;35.81;100727.50;4865661;28;101193;-82
2021/10/11 10:13:20;;;;;;;15.40;11.00;;;;;;;19.58;35.71;100723.72;4881333;28;101512;-82
2021/10/11 10:15:48;;;;;;;21.15;10.70;;;;;;;20.03;35.56;100721.66;4897465;28;96460;-81
2021/10/11 10:18:18;;;;;;;20.45;11.43;;;;;;;20.37;34.59;100714.03;4910397;28;96876;-83
2021/10/11 10:20:58;;;;;;;13.90;10.15;;;;;;;20.22;35.34;100712.44;4916302;28;98839;-82
2021/10/11 10:23:29;;;;;;;20.17;11.67;;;;;;;20.20;35.04;100701.84;4900628;28;101326;-83
2021/10/11 10:26:07;;;;;;;16.70;10.75;;;;;;;20.37;35.04;100708.69;4899886;28;97546;-82
2021/10/11 10:28:45;;;;;;;16.10;11.18;;;;;;;19.80;36.56;100698.34;4900254;28;96744;-82
2021/10/11 10:31:13;;;;;;;14.93;10.85;;;;;;;19.20;36.87;100705.75;4900068;28;101829;-83
2021/10/11 10:33:41;;;;;;;13.70;8.82;;;;;;;19.00;37.79;100703.50;4899873;28;98214;-82
2021/10/11 10:36:24;;;;;;;14.45;9.27;;;;;;;18.86;36.75;100692.88;4899868;28;97067;-82
2021/10/11 10:39:09;;;;;;;16.45;9.60;;;;;;;18.41;37.83;100697.38;4916270;28;96956;-83
2021/10/11 10:41:38;;;;;;;15.55;9.88;;;;;;;18.21;38.76;100696.81;4916073;28;101714;-82
2021/10/11 10:44:18;;;;;;;14.90;8.52;;;;;;;17.94;39.38;100688.66;4916948;28;97360;-81
2021/10/11 10:46:54;;;;;;;13.85;8.57;;;;;;;17.73;39.92;100687.22;4915900;28;96682;-83
2021/10/11 10:49:40;;;;;;;14.50;8.73;;;;;;;17.63;39.65;100677.16;4932357;28;96832;-80
2021/10/11 10:52:20;;;;;;;16.77;8.88;;;;;;;17.48;40.29;100679.81;4883757;28;101519;-81
2021/10/11 10:54:50;;;;;;;15.63;8.68;;;;;;;17.36;40.30;100676.06;4917146;28;98539;-89
2021/10/11 10:57:25;;;;;;;14.63;8.85;;;;;;;17.27;40.61;100677.44;4901438;28;96523;-89
2021/10/11 10:59:58;;;;;;;13.65;7.57;;;;;;;17.26;40.90;100678.38;4885180;28;96923;-89
2021/10/11 11:02:24;;;;;;;15.57;7.57;;;;;;;17.24;40.61;100668.78;4901142;28;101757;-90
2021/10/11 11:04:57;;;;;;;22.50;9.07;;;;;;;17.23;40.44;100661.78;4900798;28;101403;-89
2021/10/11 11:07:28;;;;;;;13.82;10.75;;;;;;;17.25;40.52;100667.84;4885703;28;96689;-90
2021/10/11 11:09:55;;;;;;;14.00;8.93;;;;;;;17.18;41.17;100657.56;4901290;28;96970;-89
2021/10/11 11:12:30;;;;;;;9.30;8.00;;;;;;;17.23;40.89;100657.34;4884133;28;100462;-90
2021/10/11 11:14:56;;;;;;;11.35;8.18;;;;;;;17.15;41.10;100668.34;4901323;28;98484;-91
2021/10/11 11:17:30;;;;;;;18.58;9.63;;;;;;;17.11;41.27;100655.38;4900224;28;97179;-91